Clarkedale, Arkansas
Current Conditions -  °F | °C
As of 12:53 AM on Saturday 29 Nov 2014 (Local Time) from KAWM Reporting Station
Overcast Overcast  
Wind Chill: 42°   Ceiling: 4200
Heat Index: 48°   Visibility: 10mi
Dew Point: 33°   Wind: 17mph
Humidity: 56%   Direction: 190°S
Pressure: 30.05"   Gusts: 26mph
Location:  35.31°N, 90.24°W
Report Text: KAWM 290653Z AUTO 19015G23KT 10SM OVC042 09/01 A3005 RMK AO2 SLP176 T00890006
Loading
Personal Weather Stations






























Interactive Weather Map New forecast layout! Learn more

10-Day Weather Forecast

Advertisements
Track Severe Weather on mobile